createdAt,value
2022-11-22T00:01:03.726Z,371.77778
2022-11-22T00:06:05.532Z,470.49573
2022-11-22T00:11:07.164Z,484.35088
2022-11-22T00:16:09.291Z,466.0339
2022-11-22T00:21:11.227Z,475.03448
2022-11-22T00:26:12.906Z,368.82759
2022-11-22T00:31:14.942Z,269.92593
2022-11-22T00:36:17.067Z,243.02913
2022-11-22T00:41:18.789Z,380.87943
2022-11-22T00:46:20.709Z,390.37681
2022-11-22T00:51:22.472Z,470.49573
2022-11-22T00:56:24.411Z,479.65217
2022-11-22T01:01:26.302Z,484.35088
2022-11-22T01:06:28.286Z,677.33333
2022-11-22T01:11:30.464Z,733.74359
2022-11-22T01:16:32.451Z,754.52632
2022-11-22T01:21:34.205Z,572.57143
2022-11-22T01:26:36.040Z,354.66667
2022-11-22T01:31:37.831Z,326.6087
2022-11-22T01:36:39.723Z,429.03937
2022-11-22T01:41:41.594Z,824
2022-11-22T01:46:43.345Z,644
2022-11-22T01:51:45.149Z,380.87943
2022-11-22T01:56:47.162Z,360.21622
2022-11-22T02:01:49.177Z,259.89744
2022-11-22T02:06:51.368Z,261.52577
2022-11-22T02:11:53.332Z,225.27854
2022-11-22T02:16:55.037Z,357.42282
2022-11-22T02:21:56.848Z,380.87943
2022-11-22T02:26:58.683Z,380.87943
2022-11-22T02:32:00.604Z,440.77419
2022-11-22T02:37:03.962Z,530.66667
2022-11-22T02:42:05.809Z,324.24691
2022-11-22T02:47:07.517Z,421.51938
2022-11-22T02:52:09.399Z,300.06936
2022-11-22T02:57:11.240Z,723.74684
2022-11-22T03:02:13.280Z,553.90099
2022-11-22T03:07:15.105Z,579.05155
2022-11-22T03:12:16.919Z,799.55556
2022-11-22T03:17:18.892Z,733.74359
2022-11-22T03:22:20.591Z,525.13208
2022-11-22T03:27:22.286Z,677.33333
2022-11-22T03:32:23.983Z,714
2022-11-22T03:37:25.668Z,599.31915
2022-11-22T03:42:27.653Z,606.36559
2022-11-22T03:47:30.025Z,466.0339
2022-11-22T03:52:31.738Z,440.77419
2022-11-22T03:57:33.459Z,403.70149
2022-11-22T04:02:36.073Z,400.2963
2022-11-22T04:07:38.005Z,410.66667
2022-11-22T04:12:39.812Z,400.2963
2022-11-22T04:17:41.688Z,310.66667
2022-11-22T04:22:43.394Z,410.66667
2022-11-22T04:27:45.182Z,304.23392
2022-11-22T04:32:47.492Z,233.20188
2022-11-22T04:37:49.327Z,290.06742
2022-11-22T04:42:51.055Z,453.09091
2022-11-22T04:47:52.910Z,489.13274
2022-11-22T04:52:54.783Z,371.77778
2022-11-22T04:57:59.936Z,333.87342
2022-11-22T05:03:02.247Z,336.35669
2022-11-22T05:08:04.300Z,300.06936
2022-11-22T05:13:05.999Z,448.91803
2022-11-22T05:18:07.840Z,457.33333
2022-11-22T05:23:09.572Z,421.51938
2022-11-22T05:28:11.357Z,421.51938
2022-11-22T05:33:13.312Z,453.09091
2022-11-22T05:38:15.149Z,414.22901
2022-11-22T05:43:17.057Z,585.66667
2022-11-22T05:48:18.812Z,230.51163
2022-11-22T05:53:21.806Z,312.86228
2022-11-22T05:58:23.374Z,230.51163
2022-11-22T06:03:25.025Z,178.22053
2022-11-22T06:08:26.786Z,226.56881
2022-11-22T06:13:29.229Z,324.24691
2022-11-22T06:18:31.166Z,380.87943
2022-11-22T06:23:32.853Z,338.87179
2022-11-22T06:28:34.574Z,271.65957
2022-11-22T06:33:37.047Z,306.35294
2022-11-22T06:38:38.763Z,410.66667
2022-11-22T06:43:45.120Z,417.84615
2022-11-22T06:48:50.212Z,371.77778
2022-11-22T06:53:51.900Z,466.0339
2022-11-22T06:58:53.708Z,425.25
2022-11-22T07:03:55.709Z,498.95495
2022-11-22T07:08:57.382Z,536.30769
2022-11-22T07:14:05.430Z,466.0339
2022-11-22T07:19:09.772Z,479.65217
2022-11-22T07:24:11.712Z,479.65217
2022-11-22T07:29:13.438Z,425.25
2022-11-22T07:34:15.176Z,290.06742
2022-11-22T07:39:17.332Z,216.56637
2022-11-22T07:44:19.447Z,217.77778
2022-11-22T07:49:21.284Z,300.06936
2022-11-22T07:54:23.065Z,384
2022-11-22T07:59:24.940Z,298.02299
2022-11-22T08:04:26.747Z,304.23392
2022-11-22T08:09:35.905Z,341.41935
2022-11-22T08:14:38.470Z,461.64706
2022-11-22T08:19:41.199Z,357.42282
2022-11-22T08:24:43.143Z,448.91803
2022-11-22T08:29:44.913Z,436.8
2022-11-22T08:34:47.450Z,475.03448
2022-11-22T08:39:49.323Z,530.66667
2022-11-22T08:44:51.903Z,572.57143
2022-11-22T08:49:53.844Z,421.51938
2022-11-22T08:54:55.885Z,400.2963
2022-11-22T08:59:57.707Z,461.64706
2022-11-22T09:04:59.781Z,494
2022-11-22T09:10:01.697Z,479.65217
2022-11-22T09:15:03.396Z,530.66667
2022-11-22T09:20:05.285Z,461.64706
2022-11-22T09:25:07.093Z,457.33333
2022-11-22T09:30:08.783Z,368.82759
2022-11-22T09:35:10.441Z,310.66667
2022-11-22T09:40:12.148Z,344
2022-11-22T09:45:13.833Z,387.16547
2022-11-22T09:50:15.534Z,410.66667
2022-11-22T09:55:20.011Z,453.09091
2022-11-22T10:00:24.563Z,410.66667
2022-11-22T10:05:26.494Z,380.87943
2022-11-22T10:10:28.260Z,324.24691
2022-11-22T10:15:29.985Z,321.91411
2022-11-22T10:20:31.825Z,349.26316
2022-11-22T10:25:33.631Z,457.33333
2022-11-22T10:30:35.457Z,457.33333
2022-11-22T10:35:37.296Z,374.76923
2022-11-22T10:40:39.069Z,344
2022-11-22T10:45:41.390Z,324.24691
2022-11-22T10:50:43.504Z,414.22901
2022-11-22T10:55:45.237Z,484.35088
2022-11-22T11:00:48.261Z,479.65217
2022-11-22T11:06:21.267Z,410.66667
2022-11-22T11:11:24.313Z,329
2022-11-22T11:16:26.049Z,525.13208
2022-11-22T11:21:27.975Z,444.81301
2022-11-22T11:26:29.676Z,317.33333
2022-11-22T11:31:31.736Z,302.13953
2022-11-22T11:36:33.354Z,310.66667
2022-11-22T11:41:40.313Z,363.04762
2022-11-22T11:46:45.165Z,414.22901
2022-11-22T11:51:46.929Z,349.26316
2022-11-22T11:56:48.857Z,329
2022-11-22T12:01:50.793Z,396.94118
2022-11-22T12:06:52.611Z,363.04762
2022-11-22T12:11:54.517Z,368.82759
2022-11-22T12:16:56.411Z,336.35669
2022-11-22T12:21:58.142Z,268.21053
2022-11-22T12:27:00.050Z,222.73303
2022-11-22T12:32:01.836Z,243.02913
2022-11-22T12:37:04.074Z,286.22222
2022-11-22T12:42:06.010Z,203.91561
2022-11-22T12:47:07.931Z,190.4
2022-11-22T12:52:09.824Z,250.46766
2022-11-22T12:57:11.680Z,292.0226
2022-11-22T13:02:13.572Z,261.52577
2022-11-22T13:07:15.393Z,245.96078
2022-11-22T13:12:17.509Z,203.91561
2022-11-22T13:17:19.636Z,224
2022-11-22T13:22:22.183Z,207.24786
2022-11-22T13:27:24.102Z,211.82609
2022-11-22T13:32:26.010Z,201.74059
2022-11-22T13:37:27.897Z,187.47826
2022-11-22T13:42:29.791Z,170.47059
2022-11-22T13:47:31.815Z,168
2022-11-22T13:52:33.682Z,184.625
2022-11-22T13:57:35.699Z,171.30627
2022-11-22T14:02:37.762Z,183.68872
2022-11-22T14:07:39.816Z,184.625
2022-11-22T14:12:41.487Z,176.45283
2022-11-22T14:17:43.189Z,134.12346
2022-11-22T14:22:45.008Z,146.63158
2022-11-22T14:27:46.689Z,144.65147
2022-11-22T14:32:48.450Z,160.90141
2022-11-22T14:37:50.048Z,190.4
2022-11-22T14:42:51.734Z,164.78853
2022-11-22T14:47:53.575Z,144
2022-11-22T14:52:55.252Z,124.11696
2022-11-22T14:57:57.004Z,113.23077
2022-11-22T15:02:58.680Z,121.52161
2022-11-22T15:09:10.452Z,130.10272
2022-11-22T15:14:32.897Z,160.14035
2022-11-22T16:02:09.452Z,185.56863
2022-11-22T16:07:11.150Z,216.56637
2022-11-22T16:12:13.153Z,176.45283
2022-11-22T16:17:14.930Z,138.32177
2022-11-22T16:22:16.596Z,142.70968
2022-11-22T16:27:18.284Z,146.63158
2022-11-22T16:32:20.041Z,145.30719
2022-11-22T16:37:21.692Z,138.32177
2022-11-22T16:42:23.315Z,141.4359
2022-11-22T16:47:24.989Z,135.90031
2022-11-22T16:52:26.627Z,148.65116
2022-11-22T16:57:28.274Z,154.23891
2022-11-22T17:02:30.370Z,148.65116
2022-11-22T17:07:32.031Z,148.65116
2022-11-22T17:12:34.045Z,138.93671
2022-11-22T17:17:36.004Z,143.35275
2022-11-22T17:22:37.690Z,150.02007
2022-11-22T17:27:39.439Z,152.81356
2022-11-22T17:32:41.197Z,166.38267
2022-11-22T17:37:42.850Z,164.78853
2022-11-22T17:42:44.499Z,152.10811
2022-11-22T17:47:46.403Z,159.38462
2022-11-22T17:52:48.070Z,162.43972
2022-11-22T17:57:54.594Z,147.97351
2022-11-22T18:02:57.857Z,186.51969
2022-11-22T18:07:59.633Z,224
2022-11-22T18:13:21.393Z,219
2022-11-22T18:18:48.970Z,222.73303
2022-11-22T18:23:57.868Z,275.1828
2022-11-22T18:29:24.610Z,312.86228
2022-11-22T18:34:37.397Z,321.91411
2022-11-22T18:39:39.642Z,333.87342
2022-11-22T18:44:41.610Z,329
2022-11-22T18:49:43.362Z,331.42138
2022-11-22T18:54:45.047Z,341.41935
2022-11-22T18:59:46.725Z,312.86228
2022-11-22T19:04:48.506Z,271.65957
2022-11-22T19:09:50.110Z,240.15385
2022-11-22T19:14:51.734Z,207.24786
2022-11-22T19:19:53.460Z,234.56604
2022-11-22T19:24:55.170Z,256.69036
2022-11-22T19:29:57.089Z,247.44828
2022-11-22T19:34:59.009Z,195.42857
2022-11-22T19:40:00.971Z,226.56881
2022-11-22T19:45:02.623Z,264.83333
2022-11-22T19:50:04.413Z,275.1828
2022-11-22T19:55:06.133Z,244.4878
2022-11-22T20:00:07.793Z,377.80282
2022-11-22T20:05:09.716Z,368.82759
2022-11-22T20:10:11.421Z,514.37037
2022-11-22T20:15:13.094Z,599.31915
2022-11-22T20:20:15.036Z,494
2022-11-22T20:25:16.629Z,466.0339
2022-11-22T20:30:18.316Z,448.91803
2022-11-22T20:35:20.224Z,470.49573
2022-11-22T20:40:22.088Z,519.70093
2022-11-22T20:45:23.895Z,579.05155
2022-11-22T20:50:25.811Z,620.92308
2022-11-22T20:55:27.450Z,652.04598
2022-11-22T21:00:29.139Z,733.74359
2022-11-22T21:05:30.843Z,704.49383
2022-11-22T21:10:32.535Z,613.56522
2022-11-22T21:15:34.394Z,606.36559
2022-11-22T21:20:36.293Z,553.90099
2022-11-22T21:25:38.004Z,585.66667
2022-11-22T21:30:39.667Z,686.16867
2022-11-22T21:35:45.006Z,660.27907
2022-11-22T21:40:47.398Z,620.92308
2022-11-22T21:45:49.097Z,560
2022-11-22T21:50:50.882Z,393.63504
2022-11-22T21:55:52.522Z,475.03448
2022-11-22T22:00:54.289Z,498.95495
2022-11-22T22:05:56.041Z,475.03448
2022-11-22T22:10:57.677Z,310.66667
2022-11-22T22:15:59.424Z,296
2022-11-22T22:21:03.173Z,201.74059
2022-11-22T22:26:04.886Z,175.57895
2022-11-22T22:31:06.549Z,147.97351
2022-11-22T22:36:08.277Z,131.23404
2022-11-22T22:41:09.984Z,498.95495
2022-11-22T22:46:11.638Z,799.55556
2022-11-22T22:51:13.520Z,1024.70175
2022-11-22T22:56:15.193Z,921.77778
2022-11-22T23:01:16.860Z,811.60563
2022-11-22T23:06:18.569Z,560
2022-11-22T23:11:20.200Z,613.56522
2022-11-22T23:16:21.883Z,448.91803
2022-11-22T23:21:24.364Z,368.82759
2022-11-22T23:26:26.293Z,321.91411
2022-11-22T23:31:28.077Z,410.66667
2022-11-22T23:36:29.780Z,547.92157
2022-11-22T23:41:31.442Z,613.56522
2022-11-22T23:46:33.130Z,686.16867
2022-11-22T23:51:35.005Z,553.90099
2022-11-22T23:56:36.655Z,514.37037
